createdAt,value
2022-08-03T00:01:44.248Z,22.27
2022-08-03T00:04:13.100Z,23.15
2022-08-03T00:06:41.255Z,22.60
2022-08-03T00:09:09.832Z,23.75
2022-08-03T00:11:38.562Z,20.38
2022-08-03T00:14:07.299Z,19.65
2022-08-03T00:16:37.285Z,19.65
2022-08-03T00:19:05.447Z,20.88
2022-08-03T00:21:33.722Z,20.10
2022-08-03T00:24:01.784Z,20.27
2022-08-03T00:26:29.878Z,20.63
2022-08-03T00:28:57.884Z,20.90
2022-08-03T00:31:39.861Z,20.85
2022-08-03T00:34:15.542Z,21.10
2022-08-03T00:36:43.560Z,23.25
2022-08-03T00:39:11.764Z,21.55
2022-08-03T00:41:39.761Z,21.50
2022-08-03T00:44:07.836Z,21.35
2022-08-03T00:46:35.872Z,22.02
2022-08-03T00:49:05.053Z,22.50
2022-08-03T00:51:35.492Z,21.45
2022-08-03T00:54:03.622Z,21.30
2022-08-03T00:56:31.883Z,21.20
2022-08-03T00:59:00.635Z,21.52
2022-08-03T01:01:30.655Z,22.73
2022-08-03T01:04:00.618Z,21.38
2022-08-03T01:06:42.233Z,22.17
2022-08-03T01:09:17.797Z,21.92
2022-08-03T01:12:00.879Z,20.88
2022-08-03T01:14:37.042Z,23.33
2022-08-03T01:17:14.309Z,22.23
2022-08-03T01:19:54.906Z,23.73
2022-08-03T01:22:54.143Z,24.55
2022-08-03T01:25:36.466Z,26.65
2022-08-03T01:28:21.034Z,25.77
2022-08-03T01:30:54.519Z,24.20
2022-08-03T01:33:26.051Z,23.27
2022-08-03T01:36:00.636Z,23.33
2022-08-03T01:38:32.154Z,21.77
2022-08-03T01:41:06.111Z,21.75
2022-08-03T01:44:27.547Z,22.67
2022-08-03T01:46:26.213Z,21.17
2022-08-03T01:48:56.301Z,21.67
2022-08-03T01:51:24.494Z,22.55
2022-08-03T01:54:14.377Z,22.73
2022-08-03T01:56:43.895Z,22.17
2022-08-03T01:59:15.569Z,21.77
2022-08-03T02:02:31.937Z,21.60
2022-08-03T02:04:36.130Z,21.40
2022-08-03T02:07:04.388Z,20.50
2022-08-03T02:09:33.511Z,22.77
2022-08-03T02:12:02.680Z,22.05
2022-08-03T02:14:32.312Z,20.88
2022-08-03T02:17:02.787Z,22.75
2022-08-03T02:19:35.774Z,22.77
2022-08-03T02:22:05.045Z,20.98
2022-08-03T02:24:33.642Z,21.23
2022-08-03T02:27:03.929Z,20.10
2022-08-03T02:29:39.629Z,20.10
2022-08-03T02:32:13.628Z,20.10
2022-08-03T02:34:43.612Z,21.50
2022-08-03T02:37:12.898Z,19.60
2022-08-03T02:39:42.919Z,19.80
2022-08-03T02:42:13.068Z,22.70
2022-08-03T02:44:47.768Z,21.45
2022-08-03T02:47:21.275Z,20.85
2022-08-03T02:49:52.150Z,19.92
2022-08-03T02:52:23.372Z,20.27
2022-08-03T02:54:56.040Z,27.58
2022-08-03T02:57:25.935Z,22.73
2022-08-03T02:59:55.289Z,21.77
2022-08-03T03:02:26.119Z,20.17
2022-08-03T03:05:52.602Z,19.83
2022-08-03T03:07:48.589Z,20.05
2022-08-03T03:10:21.160Z,19.83
2022-08-03T03:12:51.280Z,19.08
2022-08-03T03:15:20.206Z,21.17
2022-08-03T03:17:51.402Z,21.35
2022-08-03T03:20:29.838Z,20.15
2022-08-03T03:23:01.099Z,22.10
2022-08-03T03:25:29.954Z,19.55
2022-08-03T03:27:58.837Z,20.67
2022-08-03T03:30:27.396Z,19.40
2022-08-03T03:32:58.169Z,20.05
2022-08-03T03:35:27.282Z,22.05
2022-08-03T03:37:55.355Z,20.05
2022-08-03T03:40:23.963Z,23.25
2022-08-03T03:42:52.418Z,19.75
2022-08-03T03:45:21.911Z,19.33
2022-08-03T03:47:50.428Z,20.70
2022-08-03T03:50:20.584Z,20.20
2022-08-03T03:52:48.529Z,20.20
2022-08-03T03:55:19.912Z,21.63
2022-08-03T03:57:47.898Z,23.45
2022-08-03T04:00:18.484Z,27.23
2022-08-03T04:02:46.513Z,20.17
2022-08-03T04:05:32.672Z,21.80
2022-08-03T04:08:30.143Z,22.35
2022-08-03T04:11:06.548Z,19.75
2022-08-03T04:13:37.910Z,18.42
2022-08-03T04:16:08.341Z,18.55
2022-08-03T04:18:39.812Z,21.38
2022-08-03T04:21:11.729Z,22.40
2022-08-03T04:23:45.779Z,25.00
2022-08-03T04:26:16.052Z,19.48
2022-08-03T04:28:47.207Z,18.95
2022-08-03T04:31:16.902Z,19.88
2022-08-03T04:33:46.417Z,22.60
2022-08-03T04:36:18.143Z,25.70
2022-08-03T04:38:56.608Z,23.35
2022-08-03T04:41:27.437Z,17.95
2022-08-03T04:43:57.176Z,18.15
2022-08-03T04:46:28.337Z,20.98
2022-08-03T04:48:57.636Z,20.88
2022-08-03T04:51:26.316Z,23.92
2022-08-03T04:53:55.935Z,24.48
2022-08-03T04:56:23.888Z,23.77
2022-08-03T04:58:52.263Z,19.20
2022-08-03T05:01:22.602Z,23.08
2022-08-03T05:03:51.578Z,22.73
2022-08-03T05:06:19.514Z,22.75
2022-08-03T05:08:50.861Z,17.85
2022-08-03T05:11:20.627Z,24.58
2022-08-03T05:13:49.180Z,18.33
2022-08-03T05:16:17.316Z,18.13
2022-08-03T05:18:46.197Z,18.92
2022-08-03T05:21:16.722Z,18.58
2022-08-03T05:23:44.882Z,19.58
2022-08-03T05:26:13.243Z,23.35
2022-08-03T05:28:51.072Z,21.40
2022-08-03T05:31:20.142Z,22.00
2022-08-03T05:33:48.998Z,18.80
2022-08-03T05:36:17.323Z,20.65
2022-08-03T05:38:45.299Z,26.15
2022-08-03T05:41:21.214Z,26.23
2022-08-03T05:43:53.875Z,27.48
2022-08-03T05:46:22.599Z,24.25
2022-08-03T05:48:50.898Z,26.63
2022-08-03T05:51:19.033Z,26.88
2022-08-03T05:53:47.346Z,26.73
2022-08-03T05:56:16.697Z,26.92
2022-08-03T05:58:47.638Z,24.25
2022-08-03T06:01:18.038Z,25.23
2022-08-03T06:03:46.608Z,22.33
2022-08-03T06:06:14.659Z,23.80
2022-08-03T06:08:43.986Z,32.55
2022-08-03T06:11:12.215Z,26.13
2022-08-03T06:13:40.667Z,27.90
2022-08-03T06:16:08.846Z,25.88
2022-08-03T06:18:38.893Z,27.73
2022-08-03T06:21:14.978Z,31.33
2022-08-03T06:23:54.193Z,31.35
2022-08-03T06:26:28.156Z,29.08
2022-08-03T06:28:56.321Z,26.83
2022-08-03T06:31:32.903Z,28.75
2022-08-03T06:34:34.394Z,30.42
2022-08-03T06:36:52.535Z,29.60
2022-08-03T06:39:23.421Z,31.73
2022-08-03T06:41:52.768Z,27.83
2022-08-03T06:44:20.941Z,30.27
2022-08-03T06:46:49.051Z,30.55
2022-08-03T06:49:19.015Z,31.13
2022-08-03T06:52:04.085Z,31.02
2022-08-03T06:54:35.683Z,28.50
2022-08-03T06:57:03.942Z,25.48
2022-08-03T07:00:09.847Z,32.22
2022-08-03T07:02:20.385Z,30.52
2022-08-03T07:04:50.246Z,33.00
2022-08-03T07:07:19.313Z,30.75
2022-08-03T07:09:56.405Z,30.10
2022-08-03T07:12:26.182Z,31.75
2022-08-03T07:14:59.585Z,32.78
2022-08-03T07:17:29.243Z,31.52
2022-08-03T07:19:58.802Z,33.50
2022-08-03T07:22:27.104Z,38.20
2022-08-03T07:24:55.229Z,33.80
2022-08-03T07:27:23.467Z,30.98
2022-08-03T07:29:51.497Z,32.20
2022-08-03T07:32:19.641Z,35.05
2022-08-03T07:34:47.794Z,30.77
2022-08-03T07:37:17.144Z,35.55
2022-08-03T07:39:45.383Z,32.40
2022-08-03T07:42:13.561Z,33.40
2022-08-03T07:44:41.568Z,34.92
2022-08-03T07:47:09.792Z,32.58
2022-08-03T07:49:50.276Z,32.03
2022-08-03T07:52:37.363Z,30.75
2022-08-03T07:55:06.402Z,29.92
2022-08-03T07:57:34.520Z,35.22
2022-08-03T08:00:03.070Z,35.08
2022-08-03T08:02:31.184Z,30.10
2022-08-03T08:05:03.545Z,34.72
2022-08-03T08:07:35.287Z,30.70
2022-08-03T08:10:03.304Z,31.58
2022-08-03T08:12:31.517Z,27.85
2022-08-03T08:14:59.598Z,28.10
2022-08-03T08:17:27.703Z,29.63
2022-08-03T08:19:55.993Z,29.17
2022-08-03T08:22:29.885Z,31.73
2022-08-03T08:25:01.217Z,28.60
2022-08-03T08:28:30.891Z,30.85
2022-08-03T08:30:20.172Z,29.50
2022-08-03T08:32:48.905Z,29.50
2022-08-03T08:35:17.504Z,27.77
2022-08-03T08:37:51.222Z,31.83
2022-08-03T08:40:23.006Z,28.85
2022-08-03T08:42:58.393Z,30.65
2022-08-03T08:45:27.552Z,29.00
2022-08-03T08:48:01.032Z,26.58
2022-08-03T08:50:31.200Z,29.95
2022-08-03T08:53:03.775Z,33.63
2022-08-03T08:55:59.006Z,31.15
2022-08-03T08:58:23.958Z,30.35
2022-08-03T09:00:52.797Z,28.30
2022-08-03T09:03:29.039Z,27.23
2022-08-03T09:06:00.537Z,27.48
2022-08-03T09:08:29.466Z,27.45
2022-08-03T09:10:58.896Z,27.15
2022-08-03T09:13:27.146Z,36.97
2022-08-03T09:16:12.014Z,27.13
2022-08-03T09:18:41.867Z,27.70
2022-08-03T09:21:32.242Z,29.48
2022-08-03T09:24:04.433Z,30.05
2022-08-03T09:26:36.750Z,26.55
2022-08-03T09:29:12.865Z,27.70
2022-08-03T09:31:44.662Z,28.23
2022-08-03T09:34:14.344Z,28.65
2022-08-03T09:36:44.671Z,28.17
2022-08-03T09:39:13.965Z,26.15
2022-08-03T09:41:44.991Z,24.80
2022-08-03T09:44:24.537Z,23.88
2022-08-03T09:46:54.560Z,25.58
2022-08-03T09:49:22.644Z,26.08
2022-08-03T09:52:37.929Z,26.05
2022-08-03T09:54:39.281Z,26.02
2022-08-03T09:57:08.694Z,24.40
2022-08-03T09:59:39.189Z,25.27
2022-08-03T10:02:23.780Z,22.20
2022-08-03T10:04:53.224Z,25.60
2022-08-03T10:07:22.453Z,26.85
2022-08-03T10:10:29.059Z,23.17
2022-08-03T10:12:49.274Z,27.67
2022-08-03T10:16:22.944Z,21.23
2022-08-03T10:18:06.066Z,25.25
2022-08-03T10:20:38.516Z,24.50
2022-08-03T10:23:07.172Z,19.55
2022-08-03T10:25:39.090Z,16.67
2022-08-03T10:28:13.581Z,17.10
2022-08-03T10:30:45.410Z,18.20
2022-08-03T10:33:51.126Z,18.67
2022-08-03T10:36:08.678Z,16.85
2022-08-03T10:38:41.540Z,21.27
2022-08-03T10:41:10.010Z,16.85
2022-08-03T10:43:45.113Z,19.65
2022-08-03T10:46:15.254Z,20.58
2022-08-03T10:48:43.791Z,15.20
2022-08-03T10:51:11.934Z,20.98
2022-08-03T10:53:44.023Z,17.60
2022-08-03T10:57:13.522Z,17.83
2022-08-03T11:00:06.027Z,16.83
2022-08-03T11:03:07.265Z,18.20
2022-08-03T11:05:37.011Z,14.32
2022-08-03T11:08:24.737Z,17.52
2022-08-03T11:10:55.284Z,12.70
2022-08-03T11:13:25.726Z,19.05
2022-08-03T11:15:59.991Z,14.50
2022-08-03T11:18:31.943Z,17.52
2022-08-03T11:21:01.418Z,16.98
2022-08-03T11:24:03.966Z,17.38
2022-08-03T11:26:33.067Z,15.52
2022-08-03T11:29:28.967Z,12.38
2022-08-03T11:31:58.596Z,16.33
2022-08-03T11:34:27.168Z,18.95
2022-08-03T11:37:22.713Z,15.00
2022-08-03T11:39:54.565Z,21.83
2022-08-03T11:42:41.757Z,15.18
2022-08-03T11:45:12.597Z,14.93
2022-08-03T11:47:50.658Z,14.05
2022-08-03T11:50:20.186Z,16.13
2022-08-03T11:52:48.788Z,13.63
2022-08-03T11:55:20.565Z,14.48
2022-08-03T11:59:01.718Z,15.60
2022-08-03T12:00:37.565Z,13.90
2022-08-03T12:03:10.018Z,13.10
2022-08-03T12:05:40.609Z,14.38
2022-08-03T12:08:11.228Z,10.75
2022-08-03T12:10:40.593Z,14.75
2022-08-03T12:14:45.162Z,12.63
2022-08-03T12:15:59.815Z,14.27
2022-08-03T12:18:29.188Z,13.30
2022-08-03T12:21:07.345Z,10.75
2022-08-03T12:23:37.800Z,12.63
2022-08-03T12:26:08.209Z,9.88
2022-08-03T12:28:38.405Z,11.23
2022-08-03T12:31:09.424Z,13.65
2022-08-03T12:34:03.025Z,10.50
2022-08-03T12:36:32.826Z,13.35
2022-08-03T12:39:02.707Z,8.15
2022-08-03T12:41:34.212Z,11.10
2022-08-03T12:44:04.019Z,12.98
2022-08-03T12:46:34.088Z,9.30
2022-08-03T12:49:06.595Z,11.90
2022-08-03T12:51:36.949Z,9.85
2022-08-03T12:54:05.857Z,15.15
2022-08-03T12:56:34.189Z,9.13
2022-08-03T12:59:20.525Z,10.13
2022-08-03T13:01:54.872Z,10.18
2022-08-03T13:04:33.683Z,9.77
2022-08-03T13:07:03.743Z,13.90
2022-08-03T13:09:42.758Z,11.10
2022-08-03T13:12:12.846Z,10.05
2022-08-03T13:14:41.289Z,14.18
2022-08-03T13:17:09.387Z,9.20
2022-08-03T13:19:39.926Z,12.18
2022-08-03T13:22:15.125Z,12.05
2022-08-03T13:24:44.661Z,10.32
2022-08-03T13:28:03.287Z,9.40
2022-08-03T13:30:02.289Z,9.18
2022-08-03T13:32:30.234Z,10.60
2022-08-03T13:34:59.603Z,8.40
2022-08-03T13:37:27.786Z,10.27
2022-08-03T13:39:59.801Z,9.63
2022-08-03T13:42:32.661Z,13.70
2022-08-03T13:45:01.573Z,8.25
2022-08-03T13:47:29.945Z,12.25
2022-08-03T13:50:00.968Z,9.15
2022-08-03T13:52:31.881Z,10.45
2022-08-03T13:55:00.280Z,8.60
2022-08-03T13:58:11.719Z,8.27
2022-08-03T14:00:27.164Z,5.80
2022-08-03T14:03:09.156Z,7.13
2022-08-03T14:05:42.408Z,9.35
2022-08-03T14:08:10.642Z,7.65
2022-08-03T14:10:41.256Z,9.95
2022-08-03T14:13:09.986Z,7.22
2022-08-03T14:15:38.746Z,5.05
2022-08-03T14:18:12.636Z,6.05
2022-08-03T14:20:50.227Z,3.70
2022-08-03T14:23:22.405Z,7.45
2022-08-03T14:25:52.254Z,11.43
2022-08-03T14:28:22.939Z,7.45
2022-08-03T14:30:52.049Z,9.00
2022-08-03T14:33:20.179Z,6.82
2022-08-03T14:35:50.326Z,4.22
2022-08-03T14:38:19.210Z,5.47
2022-08-03T14:40:47.512Z,6.45
2022-08-03T14:43:17.820Z,9.27
2022-08-03T14:45:47.727Z,5.47
2022-08-03T14:50:29.395Z,6.97
2022-08-03T14:51:06.187Z,6.95
2022-08-03T14:53:35.392Z,6.25
2022-08-03T14:56:07.799Z,7.97
2022-08-03T14:58:38.217Z,6.90
2022-08-03T15:02:06.364Z,6.32
2022-08-03T15:03:55.286Z,10.50
2022-08-03T15:06:24.585Z,7.82
2022-08-03T15:09:13.927Z,7.28
2022-08-03T15:11:40.672Z,9.45
2022-08-03T15:14:09.586Z,3.13
2022-08-03T15:16:38.112Z,4.45
2022-08-03T15:20:01.077Z,3.72
2022-08-03T15:21:55.626Z,7.38
2022-08-03T15:24:23.620Z,3.65
2022-08-03T15:26:52.499Z,5.85
2022-08-03T15:30:04.842Z,4.95
2022-08-03T15:32:09.595Z,5.80
2022-08-03T15:34:38.216Z,6.22
2022-08-03T15:37:15.236Z,9.35
2022-08-03T15:39:59.028Z,5.95
2022-08-03T15:42:29.180Z,5.10
2022-08-03T15:44:57.348Z,10.68
2022-08-03T15:47:25.398Z,6.45
2022-08-03T15:49:53.578Z,4.40
2022-08-03T15:52:22.968Z,5.13
2022-08-03T15:54:51.378Z,4.45
2022-08-03T15:57:19.597Z,6.78
2022-08-03T15:59:47.797Z,5.53
2022-08-03T16:02:16.028Z,4.53
2022-08-03T16:04:44.196Z,3.03
2022-08-03T16:07:12.756Z,5.97
2022-08-03T16:09:44.075Z,7.50
2022-08-03T16:12:15.639Z,5.70
2022-08-03T16:14:52.888Z,4.20
2022-08-03T16:17:22.098Z,8.50
2022-08-03T16:19:50.529Z,4.90
2022-08-03T16:22:22.953Z,5.20
2022-08-03T16:24:53.256Z,4.82
2022-08-03T16:27:37.537Z,7.93
2022-08-03T16:30:11.927Z,6.22
2022-08-03T16:32:39.964Z,7.05
2022-08-03T16:35:09.061Z,5.72
2022-08-03T16:37:50.760Z,6.40
2022-08-03T16:40:26.777Z,7.40
2022-08-03T16:42:55.040Z,4.82
2022-08-03T16:45:23.416Z,7.60
2022-08-03T16:48:05.609Z,9.32
2022-08-03T16:50:35.035Z,4.97
2022-08-03T16:53:08.903Z,6.22
2022-08-03T16:55:51.734Z,4.70
2022-08-03T16:58:34.532Z,3.63
2022-08-03T17:01:21.521Z,5.35
2022-08-03T17:04:02.251Z,8.93
2022-08-03T17:06:35.168Z,8.10
2022-08-03T17:09:09.219Z,7.20
2022-08-03T17:11:46.430Z,6.60
2022-08-03T17:14:17.361Z,9.00
2022-08-03T17:16:53.022Z,7.05
2022-08-03T17:19:24.075Z,7.32
2022-08-03T17:22:00.654Z,6.10
2022-08-03T17:24:34.208Z,6.53
2022-08-03T17:27:08.852Z,7.13
2022-08-03T17:29:45.259Z,8.50
2022-08-03T17:32:21.215Z,7.75
2022-08-03T17:34:51.197Z,6.53
2022-08-03T17:37:50.507Z,6.25
2022-08-03T17:40:17.512Z,5.63
2022-08-03T17:42:50.588Z,9.32
2022-08-03T17:45:19.551Z,7.03
2022-08-03T17:47:57.588Z,6.32
2022-08-03T17:50:34.569Z,5.90
2022-08-03T17:53:15.542Z,5.65
2022-08-03T17:56:04.174Z,7.55
2022-08-03T17:58:43.629Z,9.25
2022-08-03T18:01:59.995Z,8.68
2022-08-03T18:04:30.188Z,8.57
2022-08-03T18:07:11.890Z,9.23
2022-08-03T18:10:03.582Z,4.72
2022-08-03T18:12:51.719Z,10.45
2022-08-03T18:15:26.242Z,6.30
2022-08-03T18:18:02.312Z,7.00
2022-08-03T18:20:41.017Z,12.32
2022-08-03T18:23:25.212Z,7.03
2022-08-03T18:26:01.285Z,9.15
2022-08-03T18:28:29.946Z,13.98
2022-08-03T18:31:04.267Z,8.40
2022-08-03T18:34:17.381Z,8.75
2022-08-03T18:36:31.776Z,7.13
2022-08-03T18:39:02.635Z,6.53
2022-08-03T18:41:33.655Z,9.05
2022-08-03T18:44:08.004Z,8.98
2022-08-03T18:46:51.149Z,6.50
2022-08-03T18:49:39.448Z,9.15
2022-08-03T18:52:16.774Z,5.32
2022-08-03T18:55:02.572Z,7.95
2022-08-03T18:57:46.368Z,7.93
2022-08-03T19:00:17.089Z,6.22
2022-08-03T19:02:58.690Z,10.65
2022-08-03T19:05:57.774Z,6.43
2022-08-03T19:08:26.127Z,5.50
2022-08-03T19:11:00.883Z,5.38
2022-08-03T19:13:36.531Z,6.78
2022-08-03T19:16:10.548Z,4.45
2022-08-03T19:18:43.271Z,3.70
2022-08-03T19:21:12.673Z,6.65
2022-08-03T19:23:48.047Z,4.30
2022-08-03T19:26:29.990Z,6.28
2022-08-03T19:29:00.109Z,5.63
2022-08-03T19:31:30.908Z,8.20
2022-08-03T19:34:04.754Z,6.47
2022-08-03T19:36:40.420Z,3.95
2022-08-03T19:39:10.016Z,6.82
2022-08-03T19:41:42.833Z,5.03
2022-08-03T19:44:20.475Z,5.15
2022-08-03T19:46:55.052Z,7.43
2022-08-03T19:49:57.709Z,9.18
2022-08-03T19:52:24.570Z,5.63
2022-08-03T19:55:04.030Z,3.47
2022-08-03T19:57:34.124Z,7.43
2022-08-03T20:00:04.090Z,5.88
2022-08-03T20:02:33.766Z,7.97
2022-08-03T20:05:03.738Z,8.35
2022-08-03T20:07:33.208Z,6.72
2022-08-03T20:10:02.359Z,7.18
2022-08-03T20:12:38.580Z,5.90
2022-08-03T20:15:13.286Z,6.00
2022-08-03T20:17:56.567Z,6.85
2022-08-03T20:20:31.287Z,7.53
2022-08-03T20:23:06.648Z,6.03
2022-08-03T20:25:57.346Z,4.78
2022-08-03T20:28:30.509Z,6.47
2022-08-03T20:30:59.971Z,7.35
2022-08-03T20:33:46.547Z,8.63
2022-08-03T20:36:18.679Z,4.32
2022-08-03T20:38:48.242Z,7.38
2022-08-03T20:41:16.594Z,6.43
2022-08-03T20:43:49.201Z,8.23
2022-08-03T20:46:31.913Z,6.22
2022-08-03T20:49:05.626Z,7.05
2022-08-03T20:51:50.278Z,8.07
2022-08-03T20:54:30.840Z,3.33
2022-08-03T20:57:00.365Z,6.53
2022-08-03T20:59:36.950Z,6.50
2022-08-03T21:02:19.912Z,6.13
2022-08-03T21:04:57.445Z,6.30
2022-08-03T21:08:04.378Z,5.38
2022-08-03T21:10:18.333Z,7.72
2022-08-03T21:12:53.078Z,7.10
2022-08-03T21:16:03.281Z,10.25
2022-08-03T21:18:17.579Z,6.50
2022-08-03T21:20:47.295Z,7.85
2022-08-03T21:23:40.140Z,6.72
2022-08-03T21:26:11.580Z,6.45
2022-08-03T21:28:40.254Z,9.60
2022-08-03T21:31:08.976Z,7.20
2022-08-03T21:33:37.203Z,6.53
2022-08-03T21:36:06.736Z,6.70
2022-08-03T21:38:36.945Z,7.90
2022-08-03T21:41:07.998Z,8.00
2022-08-03T21:43:35.969Z,6.68
2022-08-03T21:46:06.484Z,13.95
2022-08-03T21:48:39.085Z,11.52
2022-08-03T21:51:08.730Z,8.60
2022-08-03T21:54:02.747Z,7.97
2022-08-03T21:56:29.569Z,6.53
2022-08-03T21:59:03.162Z,7.88
2022-08-03T22:01:34.502Z,7.90
2022-08-03T22:04:07.050Z,9.32
2022-08-03T22:06:36.355Z,6.95
2022-08-03T22:09:07.234Z,8.00
2022-08-03T22:11:35.746Z,11.25
2022-08-03T22:14:04.208Z,13.00
2022-08-03T22:16:32.428Z,11.07
2022-08-03T22:19:00.438Z,15.32
2022-08-03T22:21:36.367Z,13.02
2022-08-03T22:24:06.877Z,12.45
2022-08-03T22:26:40.705Z,18.77
2022-08-03T22:29:09.085Z,16.23
2022-08-03T22:31:58.615Z,14.55
2022-08-03T22:34:27.867Z,17.65
2022-08-03T22:37:01.955Z,15.20
2022-08-03T22:39:31.719Z,17.20
2022-08-03T22:42:00.266Z,16.55
2022-08-03T22:44:28.628Z,12.48
2022-08-03T22:46:57.079Z,15.75
2022-08-03T22:49:25.461Z,11.38
2022-08-03T22:51:54.538Z,10.82
2022-08-03T22:54:23.573Z,14.57
2022-08-03T22:56:53.558Z,13.48
2022-08-03T22:59:41.075Z,13.23
2022-08-03T23:02:20.531Z,12.65
2022-08-03T23:04:52.190Z,10.90
2022-08-03T23:07:27.988Z,11.20
2022-08-03T23:09:58.416Z,14.75
2022-08-03T23:12:30.452Z,12.45
2022-08-03T23:15:02.736Z,11.23
2022-08-03T23:17:32.449Z,13.02
2022-08-03T23:20:06.327Z,15.70
2022-08-03T23:22:35.031Z,22.10
2022-08-03T23:25:04.980Z,19.25
2022-08-03T23:27:34.841Z,22.58
2022-08-03T23:30:03.879Z,24.55
2022-08-03T23:32:32.394Z,22.45
2022-08-03T23:35:20.731Z,21.52
2022-08-03T23:38:07.208Z,24.02
2022-08-03T23:40:38.166Z,18.63
2022-08-03T23:43:08.788Z,18.08
2022-08-03T23:45:46.334Z,18.40
2022-08-03T23:48:14.302Z,19.15
2022-08-03T23:50:46.201Z,18.98
2022-08-03T23:53:22.639Z,17.42
2022-08-03T23:56:10.474Z,17.52
2022-08-03T23:59:01.320Z,19.88
